Terminal Aerodrome Forecast
Issued by NWS Midland/Odessa, TX

Home | Current Version | Previous Version | Text Only | Print | Product List | Glossary On
Versions: 1 2 3 4 5 6 7 8 9 10 11 12 13 14 15 16 17 18 19 20
612
FTUS44 KMAF 291723
TAFMAF
TAF
KMAF 291723Z 2918/3018 08011KT P6SM BKN060 BKN110
      TEMPO 2921/3001 6SM TSRA BKN040CB
     FM300100 08007KT P6SM BKN050 BKN120
      TEMPO 3001/3005 6SM TSRA BKN040CB
     FM300500 05006KT P6SM BKN040 PROB30 3005/3011 5SM TSRA BR
      OVC020CB=

USA.gov is the U.S. government's official web portal to all federal, state and local government web resources and services.